createdAt,value
2023-05-23T00:00:01.913Z,10.27
2023-05-23T00:01:01.930Z,11.65
2023-05-23T00:02:02.023Z,11.03
2023-05-23T00:03:02.098Z,11.92
2023-05-23T00:04:02.234Z,12.09
2023-05-23T00:05:02.085Z,11.28
2023-05-23T00:06:02.070Z,12.38
2023-05-23T00:07:02.069Z,11.93
2023-05-23T00:08:02.164Z,12.28
2023-05-23T00:09:02.082Z,13.16
2023-05-23T00:10:02.121Z,10.35
2023-05-23T00:11:02.141Z,12.19
2023-05-23T00:12:02.107Z,10.38
2023-05-23T00:13:02.155Z,11.60
2023-05-23T00:14:02.206Z,11.99
2023-05-23T00:15:02.177Z,11.28
2023-05-23T00:16:02.245Z,11.47
2023-05-23T00:17:02.257Z,11.55
2023-05-23T00:18:02.361Z,11.06
2023-05-23T00:19:02.373Z,11.02
2023-05-23T00:20:02.323Z,11.29
2023-05-23T00:21:02.427Z,10.21
2023-05-23T00:22:02.379Z,10.84
2023-05-23T00:23:02.391Z,10.95
2023-05-23T00:24:02.478Z,10.77
2023-05-23T00:25:02.440Z,10.52
2023-05-23T00:26:02.465Z,11.36
2023-05-23T00:27:02.518Z,11.68
2023-05-23T00:28:02.600Z,11.10
2023-05-23T00:29:02.630Z,11.43
2023-05-23T00:30:02.654Z,11.65
2023-05-23T00:31:02.724Z,11.65
2023-05-23T00:32:02.734Z,11.39
2023-05-23T00:33:02.818Z,11.90
2023-05-23T00:34:02.824Z,11.13
2023-05-23T00:35:02.829Z,12.17
2023-05-23T00:36:02.855Z,12.22
2023-05-23T00:37:02.893Z,10.95
2023-05-23T00:38:02.901Z,11.76
2023-05-23T00:39:02.957Z,11.35
2023-05-23T00:40:03.040Z,10.88
2023-05-23T00:41:03.028Z,11.10
2023-05-23T00:42:03.050Z,10.79
2023-05-23T00:43:03.106Z,11.24
2023-05-23T00:44:03.128Z,11.47
2023-05-23T00:45:03.158Z,11.55
2023-05-23T00:46:03.175Z,11.44
2023-05-23T00:47:03.225Z,11.86
2023-05-23T00:48:03.278Z,11.85
2023-05-23T00:49:03.299Z,11.47
2023-05-23T00:50:03.283Z,12.62
2023-05-23T00:51:03.350Z,12.25
2023-05-23T00:52:03.380Z,10.49
2023-05-23T00:53:03.391Z,11.10
2023-05-23T00:54:03.473Z,11.03
2023-05-23T00:55:03.528Z,12.25
2023-05-23T00:56:03.613Z,10.46
2023-05-23T00:57:03.598Z,11.95
2023-05-23T00:58:03.635Z,12.38
2023-05-23T00:59:03.662Z,11.92
2023-05-23T01:00:03.723Z,11.30
2023-05-23T01:01:03.757Z,11.27
2023-05-23T01:02:03.797Z,12.06
2023-05-23T01:03:03.968Z,11.72
2023-05-23T01:04:03.925Z,10.98
2023-05-23T01:05:03.821Z,12.10
2023-05-23T01:06:03.872Z,13.14
2023-05-23T01:07:03.901Z,11.74
2023-05-23T01:08:03.920Z,11.70
2023-05-23T01:10:23.500Z,11.19
2023-05-23T01:11:23.542Z,11.27
2023-05-23T01:12:23.565Z,12.96
2023-05-23T01:13:23.561Z,11.75
2023-05-23T01:14:23.549Z,11.12
2023-05-23T01:15:23.518Z,10.81
2023-05-23T01:16:23.519Z,10.31
2023-05-23T01:17:23.542Z,11.41
2023-05-23T01:18:23.518Z,12.09
2023-05-23T01:19:23.601Z,11.19
2023-05-23T01:20:23.481Z,11.91
2023-05-23T01:21:23.460Z,10.07
2023-05-23T01:22:23.494Z,10.98
2023-05-23T01:23:23.435Z,10.60
2023-05-23T01:24:23.466Z,10.77
2023-05-23T01:25:23.417Z,11.48
2023-05-23T01:26:23.451Z,11.06
2023-05-23T01:27:23.497Z,10.75
2023-05-23T01:28:23.434Z,11.45
2023-05-23T01:29:23.447Z,11.32
2023-05-23T01:30:23.414Z,11.65
2023-05-23T01:31:23.459Z,11.98
2023-05-23T01:32:23.392Z,10.71
2023-05-23T01:33:23.400Z,10.17
2023-05-23T01:34:23.407Z,10.65
2023-05-23T01:35:23.348Z,10.37
2023-05-23T01:36:23.350Z,10.99
2023-05-23T01:37:23.329Z,10.17
2023-05-23T01:38:23.333Z,10.07
2023-05-23T01:39:23.340Z,10.54
2023-05-23T01:40:23.346Z,10.59
2023-05-23T01:41:23.324Z,10.54
2023-05-23T01:42:23.321Z,10.60
2023-05-23T01:43:23.404Z,10.79
2023-05-23T01:44:23.277Z,11.99
2023-05-23T01:45:23.300Z,10.62
2023-05-23T01:46:23.481Z,11.07
2023-05-23T01:47:23.307Z,10.52
2023-05-23T01:48:23.237Z,10.29
2023-05-23T01:49:23.278Z,11.10
2023-05-23T01:50:23.261Z,11.02
2023-05-23T01:51:23.245Z,11.90
2023-05-23T01:52:23.247Z,12.72
2023-05-23T01:53:23.239Z,10.89
2023-05-23T01:54:23.237Z,11.72
2023-05-23T01:55:23.207Z,10.56
2023-05-23T01:56:23.216Z,11.39
2023-05-23T01:57:23.224Z,10.96
2023-05-23T01:58:23.210Z,11.33
2023-05-23T01:59:23.258Z,10.63
2023-05-23T02:00:23.139Z,12.13
2023-05-23T02:01:23.214Z,11.69
2023-05-23T02:02:23.244Z,11.49
2023-05-23T02:03:23.284Z,10.69
2023-05-23T02:04:23.167Z,10.73
2023-05-23T02:05:23.159Z,12.14
2023-05-23T02:06:23.130Z,11.64
2023-05-23T02:07:23.159Z,12.04
2023-05-23T02:08:23.117Z,12.41
2023-05-23T02:09:23.138Z,11.55
2023-05-23T02:10:23.104Z,12.56
2023-05-23T02:11:23.110Z,14.56
2023-05-23T02:12:23.075Z,11.96
2023-05-23T02:13:23.099Z,12.63
2023-05-23T02:14:23.075Z,11.86
2023-05-23T02:15:23.133Z,12.70
2023-05-23T02:16:23.106Z,11.64
2023-05-23T02:17:23.184Z,12.16
2023-05-23T02:18:23.075Z,11.01
2023-05-23T02:19:23.122Z,12.03
2023-05-23T02:20:23.120Z,12.75
2023-05-23T02:21:23.124Z,12.81
2023-05-23T02:22:23.162Z,11.65
2023-05-23T02:23:23.189Z,11.51
2023-05-23T02:24:23.231Z,12.86
2023-05-23T02:25:23.244Z,12.44
2023-05-23T02:26:23.306Z,12.46
2023-05-23T02:27:23.281Z,13.65
2023-05-23T02:28:23.342Z,12.79
2023-05-23T02:29:23.321Z,14.18
2023-05-23T02:30:23.363Z,13.46
2023-05-23T02:31:23.494Z,12.95
2023-05-23T02:32:23.410Z,12.91
2023-05-23T02:33:23.509Z,12.47
2023-05-23T02:34:23.528Z,11.80
2023-05-23T02:35:23.525Z,11.51
2023-05-23T02:36:23.530Z,11.70
2023-05-23T02:37:23.590Z,11.73
2023-05-23T02:38:23.575Z,11.91
2023-05-23T02:39:23.614Z,11.41
2023-05-23T02:40:23.582Z,11.12
2023-05-23T02:41:23.638Z,11.21
2023-05-23T02:42:23.662Z,11.64
2023-05-23T02:43:23.717Z,12.29
2023-05-23T02:44:23.753Z,12.85
2023-05-23T02:45:23.764Z,11.31
2023-05-23T02:46:23.789Z,12.78
2023-05-23T02:47:23.822Z,11.55
2023-05-23T02:48:23.774Z,13.22
2023-05-23T02:49:23.850Z,13.13
2023-05-23T02:50:23.798Z,11.42
2023-05-23T02:51:23.873Z,11.99
2023-05-23T02:52:23.914Z,12.07
2023-05-23T02:53:23.956Z,11.49
2023-05-23T02:54:24.010Z,11.92
2023-05-23T02:55:24.095Z,13.34
2023-05-23T02:56:24.117Z,12.74
2023-05-23T02:57:24.187Z,11.58
2023-05-23T02:58:24.191Z,10.55
2023-05-23T02:59:24.233Z,11.31
2023-05-23T03:00:24.248Z,10.10
2023-05-23T03:01:24.338Z,11.59
2023-05-23T03:02:24.351Z,12.04
2023-05-23T03:03:24.520Z,10.82
2023-05-23T03:04:24.390Z,10.74
2023-05-23T03:05:24.439Z,10.96
2023-05-23T03:06:26.052Z,11.58
2023-05-23T03:07:28.708Z,11.10
2023-05-23T03:08:24.488Z,11.49
2023-05-23T03:09:24.472Z,11.57
2023-05-23T03:10:24.466Z,10.74
2023-05-23T03:11:24.451Z,12.32
2023-05-23T03:12:24.480Z,11.48
2023-05-23T03:13:24.445Z,11.22
2023-05-23T03:14:24.461Z,11.19
2023-05-23T03:15:24.445Z,11.08
2023-05-23T03:16:24.480Z,11.45
2023-05-23T03:17:24.455Z,10.48
2023-05-23T03:18:24.402Z,11.34
2023-05-23T03:19:24.579Z,12.75
2023-05-23T03:20:24.421Z,11.52
2023-05-23T03:21:24.418Z,11.76
2023-05-23T03:22:24.383Z,10.50
2023-05-23T03:23:24.403Z,11.34
2023-05-23T03:24:24.404Z,11.18
2023-05-23T03:25:24.377Z,11.98
2023-05-23T03:26:24.359Z,10.93
2023-05-23T03:27:24.366Z,12.29
2023-05-23T03:28:24.377Z,11.30
2023-05-23T03:29:24.389Z,10.97
2023-05-23T03:30:24.333Z,11.41
2023-05-23T03:31:24.377Z,11.80
2023-05-23T03:32:24.454Z,10.78
2023-05-23T03:33:24.411Z,11.93
2023-05-23T03:34:24.493Z,11.30
2023-05-23T03:35:24.566Z,12.00
2023-05-23T03:36:24.530Z,13.35
2023-05-23T03:37:24.592Z,11.60
2023-05-23T03:38:24.647Z,11.97
2023-05-23T03:39:24.698Z,12.62
2023-05-23T03:40:24.761Z,12.54
2023-05-23T03:41:24.759Z,12.75
2023-05-23T03:42:24.835Z,13.01
2023-05-23T03:43:24.838Z,12.08
2023-05-23T03:44:24.847Z,13.61
2023-05-23T03:45:24.840Z,13.62
2023-05-23T03:46:24.871Z,13.43
2023-05-23T03:47:24.905Z,12.66
2023-05-23T03:48:24.919Z,12.47
2023-05-23T03:49:24.922Z,11.90
2023-05-23T03:50:24.985Z,12.01
2023-05-23T03:51:25.064Z,11.90
2023-05-23T03:52:24.993Z,12.52
2023-05-23T03:53:25.063Z,11.43
2023-05-23T03:54:25.110Z,11.72
2023-05-23T03:55:25.078Z,10.90
2023-05-23T03:56:25.129Z,11.97
2023-05-23T03:57:25.121Z,11.12
2023-05-23T03:58:25.094Z,11.12
2023-05-23T03:59:25.142Z,12.00
2023-05-23T04:00:25.151Z,11.78
2023-05-23T04:01:25.160Z,11.95
2023-05-23T04:02:25.240Z,12.34
2023-05-23T04:03:25.285Z,12.17
2023-05-23T04:04:25.339Z,11.76
2023-05-23T04:05:25.257Z,12.01
2023-05-23T04:06:25.302Z,12.64
2023-05-23T04:07:26.249Z,13.63
2023-05-23T04:08:25.362Z,14.19
2023-05-23T04:09:25.366Z,13.70
2023-05-23T04:10:25.462Z,13.69
2023-05-23T04:11:25.420Z,13.25
2023-05-23T04:12:25.416Z,12.34
2023-05-23T04:13:25.445Z,13.13
2023-05-23T04:14:25.483Z,12.91
2023-05-23T04:15:25.524Z,12.04
2023-05-23T04:16:25.616Z,11.81
2023-05-23T04:17:25.713Z,11.99
2023-05-23T04:18:25.630Z,12.09
2023-05-23T04:19:25.752Z,13.56
2023-05-23T04:20:25.728Z,13.36
2023-05-23T04:21:25.765Z,12.19
2023-05-23T04:22:25.822Z,12.52
2023-05-23T04:23:25.870Z,12.24
2023-05-23T04:24:25.825Z,12.69
2023-05-23T04:25:25.831Z,12.13
2023-05-23T04:26:25.846Z,10.67
2023-05-23T04:27:25.901Z,10.96
2023-05-23T04:28:25.891Z,12.92
2023-05-23T04:29:25.988Z,13.15
2023-05-23T04:30:26.031Z,11.73
2023-05-23T04:31:26.094Z,12.46
2023-05-23T04:32:26.056Z,12.23
2023-05-23T04:33:26.105Z,13.85
2023-05-23T04:34:26.168Z,12.77
2023-05-23T04:35:26.214Z,12.86
2023-05-23T04:36:26.217Z,13.33
2023-05-23T04:37:26.560Z,11.90
2023-05-23T04:38:26.279Z,12.94
2023-05-23T04:39:26.425Z,13.77
2023-05-23T04:40:26.377Z,13.33
2023-05-23T04:41:26.487Z,14.17
2023-05-23T04:42:26.469Z,12.75
2023-05-23T04:43:26.551Z,15.32
2023-05-23T04:44:26.593Z,13.19
2023-05-23T04:45:26.606Z,14.46
2023-05-23T04:46:26.761Z,14.16
2023-05-23T04:47:26.616Z,15.30
2023-05-23T04:48:26.610Z,13.71
2023-05-23T04:49:26.713Z,14.42
2023-05-23T04:50:26.728Z,14.58
2023-05-23T04:51:26.762Z,14.61
2023-05-23T04:52:26.769Z,14.34
2023-05-23T04:53:26.792Z,15.61
2023-05-23T04:54:26.848Z,14.14
2023-05-23T04:55:26.901Z,14.88
2023-05-23T04:56:26.870Z,15.77
2023-05-23T04:57:26.899Z,14.93
2023-05-23T04:58:26.943Z,15.69
2023-05-23T04:59:26.930Z,14.20
2023-05-23T05:00:26.966Z,14.91
2023-05-23T05:01:27.483Z,14.03
2023-05-23T05:02:27.124Z,15.52
2023-05-23T05:03:27.137Z,14.88
2023-05-23T05:04:27.312Z,15.40
2023-05-23T05:05:27.227Z,14.58
2023-05-23T05:06:27.249Z,14.12
2023-05-23T05:07:27.328Z,14.53
2023-05-23T05:08:27.367Z,14.36
2023-05-23T05:09:27.407Z,15.55
2023-05-23T05:10:27.418Z,15.44
2023-05-23T05:11:27.496Z,14.35
2023-05-23T05:12:27.490Z,14.37
2023-05-23T05:13:27.560Z,14.76
2023-05-23T05:14:27.605Z,14.54
2023-05-23T05:15:27.655Z,15.05
2023-05-23T05:16:27.696Z,15.67
2023-05-23T05:17:27.827Z,13.75
2023-05-23T05:18:27.756Z,15.71
2023-05-23T05:19:27.825Z,15.82
2023-05-23T05:20:27.814Z,15.17
2023-05-23T05:21:27.858Z,15.22
2023-05-23T05:22:27.893Z,14.82
2023-05-23T05:23:27.951Z,13.92
2023-05-23T05:24:28.027Z,14.81
2023-05-23T05:25:28.002Z,14.66
2023-05-23T05:26:28.015Z,15.85
2023-05-23T05:27:28.169Z,16.46
2023-05-23T05:28:28.063Z,15.30
2023-05-23T05:29:28.112Z,15.71
2023-05-23T05:30:28.109Z,15.43
2023-05-23T05:31:28.229Z,15.45
2023-05-23T05:32:28.248Z,14.75
2023-05-23T05:33:28.306Z,14.26
2023-05-23T05:34:28.331Z,14.12
2023-05-23T05:35:28.361Z,14.89
2023-05-23T05:36:28.373Z,15.79
2023-05-23T05:37:28.480Z,15.22
2023-05-23T05:38:28.477Z,15.52
2023-05-23T05:39:28.604Z,15.35
2023-05-23T05:40:28.572Z,15.71
2023-05-23T05:41:28.609Z,16.22
2023-05-23T05:42:28.613Z,16.35
2023-05-23T05:43:28.722Z,16.61
2023-05-23T05:44:28.685Z,16.54
2023-05-23T05:45:28.740Z,17.12
2023-05-23T05:46:28.802Z,16.63
2023-05-23T05:47:28.805Z,15.38
2023-05-23T05:48:28.846Z,16.35
2023-05-23T05:49:28.864Z,15.89
2023-05-23T05:50:28.841Z,15.31
2023-05-23T05:51:28.897Z,15.31
2023-05-23T05:52:28.915Z,15.98
2023-05-23T05:53:28.961Z,15.03
2023-05-23T05:54:29.003Z,15.73
2023-05-23T05:55:29.080Z,15.33
2023-05-23T05:56:29.124Z,14.77
2023-05-23T05:57:29.077Z,15.32
2023-05-23T05:58:29.106Z,15.18
2023-05-23T05:59:30.573Z,15.16
2023-05-23T06:00:29.111Z,14.23
2023-05-23T06:01:29.134Z,15.06
2023-05-23T06:02:29.127Z,14.90
2023-05-23T06:03:29.186Z,15.27
2023-05-23T06:04:29.133Z,14.02
2023-05-23T06:05:29.050Z,14.07
2023-05-23T06:06:29.047Z,13.26
2023-05-23T06:07:29.060Z,14.85
2023-05-23T06:08:29.069Z,12.91
2023-05-23T06:09:29.056Z,13.07
2023-05-23T06:10:29.034Z,13.33
2023-05-23T06:11:29.069Z,12.95
2023-05-23T06:12:29.023Z,12.52
2023-05-23T06:13:29.090Z,12.68
2023-05-23T06:14:29.046Z,14.20
2023-05-23T06:15:29.061Z,11.43
2023-05-23T06:16:29.018Z,12.97
2023-05-23T06:17:29.029Z,12.87
2023-05-23T06:18:29.058Z,13.29
2023-05-23T06:19:29.055Z,12.38
2023-05-23T06:20:29.093Z,13.31
2023-05-23T06:21:28.961Z,12.52
2023-05-23T06:22:28.972Z,13.01
2023-05-23T06:23:28.935Z,13.59
2023-05-23T06:24:28.961Z,13.49
2023-05-23T06:25:28.918Z,16.48
2023-05-23T06:26:28.909Z,14.55
2023-05-23T06:27:28.949Z,14.81
2023-05-23T06:28:28.948Z,13.87
2023-05-23T06:29:28.956Z,14.89
2023-05-23T06:30:28.915Z,14.13
2023-05-23T06:31:28.998Z,14.09
2023-05-23T06:32:28.970Z,13.96
2023-05-23T06:33:28.891Z,14.76
2023-05-23T06:34:28.889Z,13.87
2023-05-23T06:35:28.852Z,15.13
2023-05-23T06:36:28.873Z,14.03
2023-05-23T06:37:28.885Z,14.41
2023-05-23T06:38:28.842Z,14.79
2023-05-23T06:39:28.853Z,14.73
2023-05-23T06:40:28.909Z,13.39
2023-05-23T06:41:28.824Z,14.29
2023-05-23T06:42:28.829Z,16.11
2023-05-23T06:43:28.808Z,15.60
2023-05-23T06:44:28.802Z,15.89
2023-05-23T06:45:28.804Z,14.63
2023-05-23T06:46:28.840Z,15.56
2023-05-23T06:47:28.939Z,14.89
2023-05-23T06:48:28.858Z,14.69
2023-05-23T06:49:28.966Z,15.86
2023-05-23T06:50:28.933Z,14.73
2023-05-23T06:51:29.119Z,15.55
2023-05-23T06:52:28.922Z,16.14
2023-05-23T06:53:28.987Z,14.43
2023-05-23T06:54:29.043Z,15.51
2023-05-23T06:55:29.063Z,14.82
2023-05-23T06:56:29.155Z,14.79
2023-05-23T06:57:29.134Z,14.66
2023-05-23T06:58:29.125Z,16.29
2023-05-23T06:59:29.193Z,15.68
2023-05-23T07:00:29.209Z,14.46
2023-05-23T07:01:29.225Z,14.27
2023-05-23T07:02:29.274Z,15.75
2023-05-23T07:03:29.345Z,15.32
2023-05-23T07:04:29.370Z,14.93
2023-05-23T07:05:29.440Z,14.72
2023-05-23T07:06:29.494Z,15.98
2023-05-23T07:07:29.480Z,15.48
2023-05-23T07:08:29.534Z,15.93
2023-05-23T07:09:29.582Z,14.16
2023-05-23T07:10:29.584Z,14.47
2023-05-23T07:11:29.629Z,16.85
2023-05-23T07:12:29.627Z,15.72
2023-05-23T07:13:29.673Z,16.41
2023-05-23T07:14:29.710Z,15.13
2023-05-23T07:15:31.680Z,14.81
2023-05-23T07:16:29.867Z,15.93
2023-05-23T07:17:29.786Z,16.06
2023-05-23T07:18:30.063Z,16.01
2023-05-23T07:19:29.947Z,15.92
2023-05-23T07:20:29.826Z,14.77
2023-05-23T07:21:29.855Z,16.64
2023-05-23T07:22:29.976Z,15.70
2023-05-23T07:23:29.862Z,17.02
2023-05-23T07:24:29.927Z,14.91
2023-05-23T07:25:29.915Z,14.76
2023-05-23T07:26:29.970Z,16.80
2023-05-23T07:27:29.970Z,16.36
2023-05-23T07:28:30.094Z,15.69
2023-05-23T07:29:30.007Z,15.29
2023-05-23T07:30:32.035Z,16.63
2023-05-23T07:31:30.012Z,16.22
2023-05-23T07:32:30.076Z,16.88
2023-05-23T07:33:30.039Z,15.93
2023-05-23T07:34:30.035Z,17.08
2023-05-23T07:35:30.006Z,17.79
2023-05-23T07:36:30.031Z,16.81
2023-05-23T07:37:30.069Z,16.66
2023-05-23T07:38:30.023Z,15.91
2023-05-23T07:39:29.970Z,16.79
2023-05-23T07:40:30.271Z,18.39
2023-05-23T07:41:29.981Z,17.09
2023-05-23T07:42:29.942Z,15.54
2023-05-23T07:43:29.949Z,15.01
2023-05-23T07:44:30.003Z,15.79
2023-05-23T07:45:30.046Z,16.50
2023-05-23T07:46:29.928Z,16.57
2023-05-23T07:47:30.020Z,16.61
2023-05-23T07:48:29.943Z,16.77
2023-05-23T07:49:29.940Z,17.55
2023-05-23T07:50:29.925Z,15.24
2023-05-23T07:51:29.937Z,16.48
2023-05-23T07:52:29.866Z,16.67
2023-05-23T07:53:29.864Z,16.79
2023-05-23T07:54:29.901Z,16.08
2023-05-23T07:55:29.861Z,16.68
2023-05-23T07:56:29.885Z,17.86
2023-05-23T07:57:29.822Z,16.40
2023-05-23T07:58:29.854Z,16.15
2023-05-23T07:59:29.859Z,15.49
2023-05-23T08:00:29.812Z,14.84
2023-05-23T08:01:29.878Z,15.10
2023-05-23T08:02:29.927Z,15.35
2023-05-23T08:03:29.809Z,15.34
2023-05-23T08:04:29.918Z,15.10
2023-05-23T08:05:29.810Z,14.49
2023-05-23T08:06:29.802Z,14.35
2023-05-23T08:07:29.809Z,15.65
2023-05-23T08:08:29.774Z,14.35
2023-05-23T08:09:29.826Z,15.28
2023-05-23T08:10:29.753Z,15.75
2023-05-23T08:11:29.746Z,15.12
2023-05-23T08:12:29.749Z,13.57
2023-05-23T08:13:29.737Z,13.77
2023-05-23T08:14:42.273Z,14.53
2023-05-23T08:15:30.816Z,13.89
2023-05-23T08:16:30.361Z,14.41
2023-05-23T08:17:29.775Z,13.15
2023-05-23T08:18:29.843Z,15.05
2023-05-23T08:19:29.772Z,15.66
2023-05-23T08:20:29.705Z,15.93
2023-05-23T08:21:29.685Z,16.40
2023-05-23T08:22:29.696Z,16.16
2023-05-23T08:23:29.751Z,15.66
2023-05-23T08:24:29.716Z,14.80
2023-05-23T08:25:29.676Z,15.49
2023-05-23T08:26:29.650Z,14.69
2023-05-23T08:27:29.692Z,15.26
2023-05-23T08:28:29.741Z,16.95
2023-05-23T08:29:29.830Z,15.61
2023-05-23T08:30:29.867Z,14.10
2023-05-23T08:31:29.973Z,15.58
2023-05-23T08:32:29.933Z,15.98
2023-05-23T08:33:29.939Z,15.51
2023-05-23T08:34:29.919Z,14.95
2023-05-23T08:35:40.851Z,15.68
2023-05-23T08:36:29.953Z,15.22
2023-05-23T08:37:29.987Z,15.40
2023-05-23T08:38:29.964Z,14.48
2023-05-23T08:39:29.870Z,14.66
2023-05-23T08:40:29.947Z,14.35
2023-05-23T08:41:29.950Z,14.95
2023-05-23T08:42:29.970Z,14.43
2023-05-23T08:43:29.894Z,13.02
2023-05-23T08:44:29.910Z,13.87
2023-05-23T08:45:29.910Z,12.84
2023-05-23T08:46:30.029Z,14.11
2023-05-23T08:47:30.020Z,13.55
2023-05-23T08:48:29.999Z,14.99
2023-05-23T08:49:30.074Z,14.36
2023-05-23T08:50:30.010Z,13.94
2023-05-23T08:51:30.035Z,14.00
2023-05-23T08:52:30.155Z,13.91
2023-05-23T08:53:30.093Z,13.28
2023-05-23T08:54:30.118Z,14.88
2023-05-23T08:55:30.070Z,13.82
2023-05-23T08:56:30.193Z,14.25
2023-05-23T08:57:30.166Z,14.29
2023-05-23T08:58:30.185Z,14.06
2023-05-23T08:59:30.199Z,13.92
2023-05-23T09:00:30.175Z,13.82
2023-05-23T09:01:30.223Z,12.81
2023-05-23T09:02:30.253Z,14.26
2023-05-23T09:03:30.249Z,14.10
2023-05-23T09:04:30.306Z,13.72
2023-05-23T09:05:30.403Z,13.26
2023-05-23T09:06:30.310Z,13.35
2023-05-23T09:07:30.336Z,15.03
2023-05-23T09:08:30.339Z,15.30
2023-05-23T09:09:30.497Z,15.74
2023-05-23T09:10:30.502Z,14.81
2023-05-23T09:11:30.345Z,12.63
2023-05-23T09:12:30.404Z,14.22
2023-05-23T09:13:30.415Z,15.75
2023-05-23T09:14:30.530Z,13.71
2023-05-23T09:15:38.107Z,13.89
2023-05-23T09:16:30.521Z,14.22
2023-05-23T09:17:32.447Z,13.66
2023-05-23T09:18:30.458Z,13.89
2023-05-23T09:19:30.512Z,14.34
2023-05-23T09:20:30.465Z,14.05
2023-05-23T09:21:30.730Z,13.69
2023-05-23T09:22:30.462Z,13.38
2023-05-23T09:23:30.553Z,12.59
2023-05-23T09:24:30.420Z,13.53
2023-05-23T09:25:30.418Z,12.99
2023-05-23T09:26:30.453Z,13.06
2023-05-23T09:27:30.400Z,13.25
2023-05-23T09:28:30.440Z,14.20
2023-05-23T09:29:30.480Z,13.49
2023-05-23T09:30:30.514Z,12.42
2023-05-23T09:31:30.522Z,12.27
2023-05-23T09:32:30.578Z,12.61
2023-05-23T09:33:30.594Z,11.82
2023-05-23T09:34:30.617Z,12.16
2023-05-23T09:35:30.682Z,11.19
2023-05-23T09:36:30.711Z,11.94
2023-05-23T09:37:30.732Z,12.65
2023-05-23T09:38:30.753Z,11.83
2023-05-23T09:39:31.490Z,11.29
2023-05-23T09:40:31.019Z,11.35
2023-05-23T09:41:30.840Z,10.72
2023-05-23T09:42:30.856Z,12.04
2023-05-23T09:43:30.922Z,13.11
2023-05-23T09:44:30.968Z,13.59
2023-05-23T09:45:31.092Z,12.97
2023-05-23T09:46:31.121Z,13.65
2023-05-23T09:47:31.114Z,13.94
2023-05-23T09:48:31.114Z,14.71
2023-05-23T09:49:31.141Z,14.89
2023-05-23T09:50:31.104Z,14.71
2023-05-23T09:51:31.144Z,14.20
2023-05-23T09:52:31.192Z,13.70
2023-05-23T09:53:31.241Z,12.20
2023-05-23T09:54:31.273Z,11.02
2023-05-23T09:55:31.377Z,12.44
2023-05-23T09:56:31.321Z,11.61
2023-05-23T09:57:31.370Z,11.53
2023-05-23T09:58:31.400Z,12.43
2023-05-23T09:59:31.455Z,12.76
2023-05-23T10:00:31.458Z,12.32
2023-05-23T10:01:31.565Z,12.40
2023-05-23T10:02:31.596Z,12.69
2023-05-23T10:03:31.612Z,12.92
2023-05-23T10:04:31.653Z,10.73
2023-05-23T10:05:31.641Z,12.35
2023-05-23T10:06:31.705Z,10.88
2023-05-23T10:07:31.688Z,12.13
2023-05-23T10:08:31.782Z,12.77
2023-05-23T10:09:31.762Z,11.85
2023-05-23T10:10:31.776Z,10.88
2023-05-23T10:11:31.780Z,11.90
2023-05-23T10:12:31.834Z,12.44
2023-05-23T10:13:31.898Z,11.01
2023-05-23T10:14:31.890Z,10.57
2023-05-23T10:15:31.915Z,10.47
2023-05-23T10:16:32.027Z,11.21
2023-05-23T10:17:32.128Z,9.85
2023-05-23T10:18:32.082Z,10.21
2023-05-23T10:19:32.277Z,9.03
2023-05-23T10:20:32.118Z,9.21
2023-05-23T10:21:32.204Z,9.87
2023-05-23T10:22:32.191Z,9.34
2023-05-23T10:23:32.191Z,9.00
2023-05-23T10:24:39.861Z,8.03
2023-05-23T10:25:32.219Z,8.04
2023-05-23T10:26:32.273Z,8.15
2023-05-23T10:27:32.222Z,7.84
2023-05-23T10:28:32.263Z,6.07
2023-05-23T10:29:32.209Z,5.32
2023-05-23T10:30:32.157Z,5.48
2023-05-23T10:31:32.210Z,6.93
2023-05-23T10:32:32.232Z,6.57
2023-05-23T10:33:32.152Z,6.51
2023-05-23T10:34:32.208Z,7.08
2023-05-23T10:35:32.324Z,5.95
2023-05-23T10:36:32.166Z,6.25
2023-05-23T10:37:32.134Z,6.32
2023-05-23T10:38:32.144Z,6.22
2023-05-23T10:39:32.169Z,5.89
2023-05-23T10:40:32.169Z,6.18
2023-05-23T10:41:32.201Z,5.79
2023-05-23T10:42:32.165Z,6.33
2023-05-23T10:43:32.266Z,6.23
2023-05-23T10:44:32.112Z,5.85
2023-05-23T10:45:32.906Z,7.68
2023-05-23T10:46:32.302Z,6.75
2023-05-23T10:47:33.253Z,6.81
2023-05-23T10:48:34.571Z,6.52
2023-05-23T10:49:32.334Z,5.99
2023-05-23T10:50:32.337Z,6.61
2023-05-23T10:51:32.367Z,6.22
2023-05-23T10:52:32.448Z,5.33
2023-05-23T10:53:32.476Z,6.29
2023-05-23T10:54:32.497Z,5.44
2023-05-23T10:55:32.595Z,6.56
2023-05-23T10:56:32.595Z,6.56
2023-05-23T10:57:32.653Z,5.46
2023-05-23T10:58:32.613Z,7.32
2023-05-23T10:59:32.632Z,5.66
2023-05-23T11:00:32.723Z,5.43
2023-05-23T11:01:32.786Z,5.94
2023-05-23T11:02:32.805Z,5.56
2023-05-23T11:03:32.891Z,5.55
2023-05-23T11:04:32.870Z,5.26
2023-05-23T11:05:40.457Z,5.01
2023-05-23T11:06:32.945Z,5.18
2023-05-23T11:07:32.907Z,5.49
2023-05-23T11:08:46.972Z,5.36
2023-05-23T11:09:33.886Z,5.44
2023-05-23T11:10:32.824Z,4.64
2023-05-23T11:11:32.864Z,5.78
2023-05-23T11:12:32.793Z,5.39
2023-05-23T11:13:32.880Z,5.42
2023-05-23T11:14:32.805Z,6.25
2023-05-23T11:15:32.871Z,5.34
2023-05-23T11:16:32.859Z,5.51
2023-05-23T11:17:32.816Z,5.51
2023-05-23T11:18:32.755Z,5.75
2023-05-23T11:19:32.794Z,5.69
2023-05-23T11:20:32.777Z,5.64
2023-05-23T11:21:32.792Z,6.11
2023-05-23T11:22:32.858Z,6.30
2023-05-23T11:23:32.857Z,6.13
2023-05-23T11:24:32.998Z,5.95
2023-05-23T11:25:32.910Z,5.44
2023-05-23T11:26:32.987Z,6.22
2023-05-23T11:27:32.968Z,6.46
2023-05-23T11:28:33.128Z,6.48
2023-05-23T11:29:33.082Z,7.08
2023-05-23T11:30:33.416Z,6.56
2023-05-23T11:31:33.089Z,6.18
2023-05-23T11:32:33.215Z,6.28
2023-05-23T11:33:33.142Z,6.24
2023-05-23T11:34:33.198Z,5.83
2023-05-23T11:35:33.170Z,6.82
2023-05-23T11:36:33.209Z,5.37
2023-05-23T11:37:33.209Z,6.01
2023-05-23T11:38:33.256Z,5.74
2023-05-23T11:39:33.336Z,5.63
2023-05-23T11:40:33.328Z,7.10
2023-05-23T11:41:33.375Z,6.69
2023-05-23T11:42:33.400Z,6.26
2023-05-23T11:43:33.443Z,7.07
2023-05-23T11:44:33.483Z,7.85
2023-05-23T11:45:33.718Z,6.94
2023-05-23T11:46:33.787Z,6.77
2023-05-23T11:47:33.624Z,7.41
2023-05-23T11:48:33.581Z,7.09
2023-05-23T11:49:33.625Z,6.75
2023-05-23T11:50:33.665Z,7.80
2023-05-23T11:51:33.685Z,7.92
2023-05-23T11:52:33.716Z,7.27
2023-05-23T11:53:33.746Z,7.30
2023-05-23T11:54:33.778Z,7.45
2023-05-23T11:55:33.856Z,5.96
2023-05-23T11:56:33.846Z,6.08
2023-05-23T11:57:33.865Z,6.04
2023-05-23T11:58:33.888Z,6.04
2023-05-23T11:59:33.910Z,6.10
2023-05-23T12:00:34.004Z,7.01
2023-05-23T12:01:34.083Z,5.81
2023-05-23T12:02:34.131Z,6.42
2023-05-23T12:03:34.249Z,6.29
2023-05-23T12:04:34.163Z,6.22
2023-05-23T12:05:34.171Z,5.52
2023-05-23T12:06:34.173Z,6.01
2023-05-23T12:07:34.205Z,6.37
2023-05-23T12:08:34.228Z,6.31
2023-05-23T12:09:34.272Z,6.31
2023-05-23T12:10:34.305Z,6.61
2023-05-23T12:11:34.314Z,6.98
2023-05-23T12:12:34.361Z,6.32
2023-05-23T12:13:34.429Z,5.85
2023-05-23T12:14:34.412Z,5.63
2023-05-23T12:15:34.468Z,6.78
2023-05-23T12:16:34.428Z,6.63
2023-05-23T12:17:34.465Z,6.46
2023-05-23T12:18:35.205Z,6.13
2023-05-23T12:19:34.596Z,6.10
2023-05-23T12:20:34.573Z,6.86
2023-05-23T12:21:34.594Z,5.54
2023-05-23T12:22:34.586Z,6.13
2023-05-23T12:23:35.297Z,6.53
2023-05-23T12:24:34.684Z,5.47
2023-05-23T12:25:34.821Z,6.14
2023-05-23T12:26:34.776Z,5.81
2023-05-23T12:27:34.806Z,5.27
2023-05-23T12:28:34.821Z,6.11
2023-05-23T12:29:35.571Z,5.48
2023-05-23T12:30:34.862Z,6.40
2023-05-23T12:31:34.884Z,6.38
2023-05-23T12:32:34.947Z,6.37
2023-05-23T12:33:34.977Z,6.84
2023-05-23T12:34:34.959Z,7.12
2023-05-23T12:35:35.050Z,6.45
2023-05-23T12:36:36.227Z,6.49
2023-05-23T12:37:35.082Z,6.14
2023-05-23T12:38:35.060Z,6.23
2023-05-23T12:39:35.059Z,5.93
2023-05-23T12:40:35.129Z,6.86
2023-05-23T12:41:35.029Z,7.35
2023-05-23T12:42:35.031Z,5.70
2023-05-23T12:43:35.022Z,5.55
2023-05-23T12:44:34.954Z,7.18
2023-05-23T12:45:35.025Z,6.41
2023-05-23T12:46:35.104Z,6.54
2023-05-23T12:47:35.084Z,6.75
2023-05-23T12:48:35.014Z,6.42
2023-05-23T12:49:35.013Z,7.16
2023-05-23T12:50:35.020Z,7.30
2023-05-23T12:51:34.959Z,8.23
2023-05-23T12:52:34.971Z,7.65
2023-05-23T12:53:34.982Z,7.61
2023-05-23T12:54:34.921Z,7.09
2023-05-23T12:55:34.951Z,7.06
2023-05-23T12:56:34.943Z,7.46
2023-05-23T12:57:34.923Z,7.60
2023-05-23T12:58:34.987Z,7.82